Time;durP1;ratioP1;P1;durP2;ratioP2;P2;SDS_P1;SDS_P2;PMS_P1;PMS_P2;Temp;Humidity;BMP_temperature;BMP_pressure;BME280_temperature;BME280_humidity;BME280_pressure;Samples;Min_cycle;Max_cycle;Signal;HPM_P1;HPM_P2
2023/10/23 00:01:04;;;;;;;10.90;9.70;;;9.20;99.90;;;;;;4997172;28;20073;-77
2023/10/23 00:03:30;;;;;;;11.63;10.00;;;9.20;99.90;;;;;;4987817;28;20066;-76
2023/10/23 00:05:55;;;;;;;11.07;8.93;;;9.20;99.90;;;;;;4997241;28;20050;-77
2023/10/23 00:08:21;;;;;;;10.90;8.98;;;9.10;99.90;;;;;;4994313;28;20038;-74
2023/10/23 00:10:47;;;;;;;9.40;8.02;;;9.10;99.90;;;;;;4996092;28;20510;-74
2023/10/23 00:13:12;;;;;;;9.35;8.30;;;9.00;99.90;;;;;;4994423;28;20049;-74
2023/10/23 00:15:39;;;;;;;9.80;8.52;;;8.90;99.90;;;;;;5006217;28;20124;-74
2023/10/23 00:18:04;;;;;;;10.15;8.98;;;8.80;99.90;;;;;;5006059;28;20038;-74
2023/10/23 00:20:30;;;;;;;11.68;8.73;;;8.80;99.90;;;;;;5010342;28;20042;-74
2023/10/23 00:22:56;;;;;;;9.38;8.32;;;8.70;99.90;;;;;;4995944;28;20545;-74
2023/10/23 00:25:22;;;;;;;11.38;9.15;;;8.70;99.90;;;;;;4995651;28;20445;-74
2023/10/23 00:27:47;;;;;;;12.93;9.27;;;8.80;99.90;;;;;;4993163;28;20047;-74
2023/10/23 00:30:13;;;;;;;11.70;8.60;;;8.80;99.90;;;;;;5008129;28;20088;-74
2023/10/23 00:32:39;;;;;;;10.48;8.88;;;8.80;99.90;;;;;;5017536;28;20052;-74
2023/10/23 00:35:05;;;;;;;9.32;7.72;;;8.70;99.90;;;;;;5014912;28;20042;-74
2023/10/23 00:37:31;;;;;;;8.88;7.57;;;8.70;99.90;;;;;;5000682;28;20041;-74
2023/10/23 00:39:57;;;;;;;9.45;8.10;;;8.60;99.90;;;;;;5007376;28;20461;-74
2023/10/23 00:42:22;;;;;;;9.02;7.13;;;8.60;99.90;;;;;;5095712;27;20066;-74
2023/10/23 00:44:48;;;;;;;9.55;7.68;;;8.60;99.90;;;;;;5009773;28;20133;-76
2023/10/23 00:47:16;;;;;;;10.85;9.75;;;8.60;99.90;;;;;;4998050;28;20054;-76
2023/10/23 00:49:43;;;;;;;9.35;8.35;;;8.60;99.90;;;;;;5094154;27;20607;-76
2023/10/23 00:52:09;;;;;;;10.20;8.32;;;8.60;99.90;;;;;;5109307;27;20081;-76
2023/10/23 00:54:36;;;;;;;9.15;7.63;;;8.50;99.90;;;;;;5103253;27;20056;-76
2023/10/23 00:57:03;;;;;;;9.60;7.10;;;8.50;99.90;;;;;;4992471;28;20123;-76
2023/10/23 00:59:29;;;;;;;8.97;7.20;;;8.50;99.90;;;;;;5008842;28;20124;-77
2023/10/23 01:01:56;;;;;;;10.03;8.37;;;8.40;99.90;;;;;;5000652;28;20042;-77
2023/10/23 01:04:22;;;;;;;8.33;7.00;;;8.30;99.90;;;;;;5009259;28;20046;-76
2023/10/23 01:06:50;;;;;;;8.90;7.40;;;8.30;99.90;;;;;;5005083;28;20120;-76
2023/10/23 01:09:16;;;;;;;9.43;7.75;;;8.30;99.90;;;;;;4989256;28;20095;-76
2023/10/23 01:11:42;;;;;;;8.85;7.60;;;8.20;99.90;;;;;;5014197;28;20045;-77
2023/10/23 01:14:08;;;;;;;8.60;7.60;;;8.30;99.90;;;;;;5008046;28;20100;-77
2023/10/23 01:16:34;;;;;;;9.60;7.25;;;8.30;99.90;;;;;;4995920;28;20035;-76
2023/10/23 01:19:00;;;;;;;9.00;7.68;;;8.30;99.90;;;;;;4991664;28;20058;-76
2023/10/23 01:21:25;;;;;;;9.95;7.40;;;8.20;99.90;;;;;;4990087;28;20133;-76
2023/10/23 01:23:53;;;;;;;9.27;7.95;;;8.20;99.90;;;;;;4992465;28;20424;-76
2023/10/23 01:26:18;;;;;;;;;;;8.20;99.90;;;;;;4998708;28;20100;-76
2023/10/23 01:28:44;;;;;;;10.02;7.95;;;8.20;99.90;;;;;;5005083;28;19921;-76
2023/10/23 01:31:10;;;;;;;9.05;6.50;;;8.10;99.90;;;;;;5003775;28;20436;-76
2023/10/23 01:33:36;;;;;;;7.88;6.65;;;8.10;99.90;;;;;;4995439;28;21984;-76
2023/10/23 01:36:01;;;;;;;7.88;5.82;;;8.10;99.90;;;;;;4995658;28;20516;-76
2023/10/23 01:38:27;;;;;;;7.53;5.82;;;8.10;99.90;;;;;;5003056;28;20078;-76
2023/10/23 01:40:53;;;;;;;6.20;4.55;;;8.10;99.90;;;;;;5000140;28;20077;-76
2023/10/23 01:43:18;;;;;;;6.05;5.20;;;8.00;99.90;;;;;;5002121;28;20050;-76
2023/10/23 01:45:44;;;;;;;7.05;5.90;;;8.00;99.90;;;;;;4989425;28;20038;-76
2023/10/23 01:48:10;;;;;;;7.65;6.82;;;7.90;99.90;;;;;;4994459;28;20065;-76
2023/10/23 01:50:36;;;;;;;8.68;6.70;;;7.80;99.90;;;;;;5007340;28;20050;-76
2023/10/23 01:53:02;;;;;;;7.28;5.47;;;7.80;99.90;;;;;;4998488;28;20042;-76
2023/10/23 01:55:28;;;;;;;7.68;6.10;;;7.70;99.90;;;;;;5106559;27;20126;-76
2023/10/23 01:57:57;;;;;;;7.38;5.20;;;7.70;99.90;;;;;;4991961;28;20030;-75
2023/10/23 02:00:22;;;;;;;5.60;5.05;;;7.70;99.90;;;;;;5005312;28;20050;-76
2023/10/23 02:02:48;;;;;;;7.40;5.57;;;7.70;99.90;;;;;;4996204;28;20054;-76
2023/10/23 02:05:14;;;;;;;7.05;4.93;;;7.70;99.90;;;;;;4993619;28;20054;-77
2023/10/23 02:07:39;;;;;;;9.18;5.57;;;7.70;99.90;;;;;;4987775;28;20046;-77
2023/10/23 02:10:06;;;;;;;7.82;5.75;;;7.60;99.90;;;;;;4991117;28;20393;-76
2023/10/23 02:12:33;;;;;;;8.55;5.05;;;7.60;99.90;;;;;;4999275;28;20038;-76
2023/10/23 02:14:58;;;;;;;5.47;4.80;;;7.50;99.90;;;;;;4992014;28;20038;-76
2023/10/23 02:17:24;;;;;;;7.85;5.55;;;7.50;99.90;;;;;;4995761;28;20073;-75
2023/10/23 02:19:50;;;;;;;8.45;5.57;;;7.50;99.90;;;;;;4990671;28;20042;-76
2023/10/23 02:22:18;;;;;;;6.35;5.25;;;7.50;99.90;;;;;;5001120;28;20389;-76
2023/10/23 02:24:44;;;;;;;10.00;5.47;;;7.40;99.90;;;;;;4999497;28;20038;-76
2023/10/23 02:27:13;;;;;;;9.55;6.05;;;7.40;99.90;;;;;;5009395;28;20187;-76
2023/10/23 02:29:40;;;;;;;6.25;5.22;;;7.40;99.90;;;;;;4999091;28;20053;-76
2023/10/23 02:32:07;;;;;;;6.28;5.57;;;7.40;99.90;;;;;;4994983;28;20042;-76
2023/10/23 02:34:35;;;;;;;8.38;5.75;;;7.40;99.90;;;;;;5005987;28;20057;-76
2023/10/23 02:37:01;;;;;;;6.07;4.80;;;7.30;99.90;;;;;;5001361;28;20050;-76
2023/10/23 02:39:26;;;;;;;7.70;6.60;;;7.30;99.90;;;;;;4996512;28;20042;-76
2023/10/23 02:41:52;;;;;;;8.82;6.55;;;7.30;99.90;;;;;;4998480;28;20050;-76
2023/10/23 02:44:18;;;;;;;8.68;7.32;;;7.30;99.90;;;;;;4995067;28;20183;-76
2023/10/23 02:46:43;;;;;;;8.63;6.75;;;7.30;99.90;;;;;;4992224;28;20039;-76
2023/10/23 02:49:09;;;;;;;12.45;6.85;;;7.40;99.90;;;;;;5001280;28;20058;-76
2023/10/23 02:51:37;;;;;;;8.43;6.88;;;7.40;99.90;;;;;;4992965;28;20512;-76
2023/10/23 02:54:02;;;;;;;9.82;6.75;;;7.40;99.90;;;;;;4997174;28;20057;-76
2023/10/23 02:56:28;;;;;;;8.45;6.95;;;7.40;99.90;;;;;;4986897;28;20444;-76
2023/10/23 02:58:54;;;;;;;11.55;7.30;;;7.40;99.90;;;;;;4990928;28;20061;-75
2023/10/23 03:01:22;;;;;;;11.77;8.23;;;7.40;99.90;;;;;;5002003;28;20046;-76
2023/10/23 03:03:48;;;;;;;9.27;6.88;;;7.40;99.90;;;;;;5097599;27;20042;-76
2023/10/23 03:06:14;;;;;;;8.00;6.10;;;7.40;99.90;;;;;;4989409;28;20043;-76
2023/10/23 03:08:40;;;;;;;12.25;7.38;;;7.40;99.90;;;;;;5093863;28;20058;-76
2023/10/23 03:11:05;;;;;;;12.07;8.32;;;7.40;99.90;;;;;;4992036;28;20034;-76
2023/10/23 03:13:34;;;;;;;13.02;7.75;;;7.50;99.90;;;;;;4993971;28;20038;-77
2023/10/23 03:16:00;;;;;;;10.57;8.38;;;7.50;99.90;;;;;;4992799;28;20049;-76
2023/10/23 03:18:26;;;;;;;10.18;7.60;;;7.50;99.90;;;;;;5005250;28;20392;-76
2023/10/23 03:20:52;;;;;;;9.60;8.20;;;7.50;99.90;;;;;;4994652;28;20127;-76
2023/10/23 03:23:17;;;;;;;10.85;8.30;;;7.40;99.90;;;;;;4990622;28;20519;-76
2023/10/23 03:25:43;;;;;;;14.35;9.15;;;7.50;99.90;;;;;;4990547;28;20054;-76
2023/10/23 03:28:09;;;;;;;9.27;7.85;;;7.50;99.90;;;;;;5008839;28;20045;-76
2023/10/23 03:30:35;;;;;;;10.00;8.02;;;7.50;99.90;;;;;;4995967;28;20050;-76
2023/10/23 03:33:00;;;;;;;10.02;7.68;;;7.40;99.90;;;;;;5000437;28;20046;-76
2023/10/23 03:35:26;;;;;;;10.00;8.40;;;7.50;99.90;;;;;;4996376;28;20041;-76
2023/10/23 03:37:52;;;;;;;9.50;8.35;;;7.40;99.90;;;;;;4995980;28;20046;-76
2023/10/23 03:40:18;;;;;;;11.40;8.93;;;7.40;99.90;;;;;;4994649;28;20041;-76
2023/10/23 03:42:44;;;;;;;10.23;8.27;;;7.40;99.90;;;;;;5002203;28;20441;-77
2023/10/23 03:45:10;;;;;;;10.40;8.32;;;7.40;99.90;;;;;;5003374;28;20033;-75
2023/10/23 03:47:35;;;;;;;10.48;8.88;;;7.40;99.90;;;;;;5000304;28;20137;-76
2023/10/23 03:50:01;;;;;;;11.20;10.00;;;7.50;99.90;;;;;;4994441;28;20176;-76
2023/10/23 03:52:27;;;;;;;9.40;8.25;;;7.40;99.90;;;;;;4988796;28;20088;-76
2023/10/23 03:54:52;;;;;;;9.90;8.20;;;7.50;99.90;;;;;;4995425;28;20439;-76
2023/10/23 03:57:18;;;;;;;12.73;8.95;;;7.50;99.90;;;;;;4994073;28;20054;-76
2023/10/23 03:59:44;;;;;;;10.73;9.02;;;7.50;99.90;;;;;;4995686;28;20038;-76
2023/10/23 04:02:10;;;;;;;12.15;8.70;;;7.60;99.90;;;;;;4990660;28;20041;-76
2023/10/23 04:04:35;;;;;;;10.50;8.23;;;7.60;99.90;;;;;;4997112;28;20393;-76
2023/10/23 04:07:01;;;;;;;13.50;9.50;;;7.60;99.90;;;;;;4993470;28;20133;-76
2023/10/23 04:09:31;;;;;;;11.73;9.65;;;7.70;99.90;;;;;;4997229;28;20507;-76
2023/10/23 04:11:57;;;;;;;14.88;10.98;;;7.70;99.90;;;;;;5006576;28;20034;-76
2023/10/23 04:14:22;;;;;;;13.70;11.02;;;7.70;99.90;;;;;;4991928;28;20129;-75
2023/10/23 04:16:48;;;;;;;13.73;11.23;;;7.80;99.90;;;;;;5004896;28;20044;-76
2023/10/23 04:19:14;;;;;;;15.80;11.75;;;7.80;99.90;;;;;;5009720;28;20044;-76
2023/10/23 04:21:39;;;;;;;14.73;11.52;;;7.90;99.90;;;;;;4996383;28;20096;-76
2023/10/23 04:24:11;;;;;;;16.30;14.60;;;8.00;99.90;;;;;;4995921;28;20129;-76
2023/10/23 04:26:38;;;;;;;14.88;11.60;;;8.00;99.90;;;;;;5000679;28;20053;-76
2023/10/23 04:29:04;;;;;;;15.43;12.25;;;8.10;99.90;;;;;;4990242;28;20038;-76
2023/10/23 04:31:30;;;;;;;14.32;11.77;;;8.10;99.90;;;;;;4996486;28;20056;-76
2023/10/23 04:33:55;;;;;;;14.50;10.43;;;8.20;99.90;;;;;;4990758;28;20465;-76
2023/10/23 04:36:21;;;;;;;12.80;10.65;;;8.20;99.90;;;;;;4994538;28;20452;-76
2023/10/23 04:38:47;;;;;;;13.85;10.32;;;8.20;99.90;;;;;;5010561;28;21525;-76
2023/10/23 04:41:13;;;;;;;12.27;9.85;;;8.10;99.90;;;;;;5009075;28;20128;-76
2023/10/23 04:43:39;;;;;;;12.77;9.13;;;8.00;99.90;;;;;;5000066;28;20053;-76
2023/10/23 04:46:05;;;;;;;10.68;9.00;;;8.00;99.90;;;;;;5094096;27;20050;-76
2023/10/23 04:48:30;;;;;;;11.75;9.20;;;7.90;99.90;;;;;;4989686;28;20123;-76
2023/10/23 04:51:00;;;;;;;14.50;9.00;;;7.80;99.90;;;;;;4990442;28;20058;-76
2023/10/23 04:53:26;;;;;;;12.77;9.20;;;7.80;99.90;;;;;;5012747;28;20045;-76
2023/10/23 04:55:52;;;;;;;11.18;8.88;;;7.70;99.90;;;;;;5003957;28;20125;-76
2023/10/23 04:58:18;;;;;;;10.80;9.05;;;7.70;99.90;;;;;;4974034;28;20082;-76
2023/10/23 05:00:44;;;;;;;11.63;9.48;;;7.70;99.90;;;;;;5007958;28;20669;-76
2023/10/23 05:03:10;;;;;;;12.13;10.05;;;7.60;99.90;;;;;;4987072;28;20081;-76
2023/10/23 05:05:36;;;;;;;13.15;10.80;;;7.60;99.90;;;;;;4991455;28;20046;-76
2023/10/23 05:08:03;;;;;;;17.55;13.05;;;7.60;99.90;;;;;;4989879;28;20095;-76
2023/10/23 05:10:29;;;;;;;;;;;7.60;99.90;;;;;;5008325;28;20049;-76
2023/10/23 05:12:56;;;;;;;21.13;14.18;;;7.60;99.90;;;;;;4999155;28;19929;-76
2023/10/23 05:15:22;;;;;;;20.60;15.50;;;7.60;99.90;;;;;;5003687;28;20482;-76
2023/10/23 05:17:48;;;;;;;18.10;14.25;;;7.70;99.90;;;;;;5097210;27;20049;-76
2023/10/23 05:20:14;;;;;;;22.67;15.48;;;7.80;99.90;;;;;;4997056;28;20125;-76
2023/10/23 05:22:40;;;;;;;20.75;15.13;;;7.80;99.90;;;;;;5006140;28;20050;-76
2023/10/23 05:25:08;;;;;;;22.10;16.73;;;7.80;99.90;;;;;;5003289;28;20118;-76
2023/10/23 05:27:35;;;;;;;23.92;18.15;;;7.90;99.90;;;;;;5096452;27;20046;-76
2023/10/23 05:30:01;;;;;;;25.15;18.90;;;7.90;99.90;;;;;;5104333;27;20046;-76
2023/10/23 05:32:26;;;;;;;26.48;18.92;;;7.90;99.90;;;;;;5000528;28;20119;-76
2023/10/23 05:34:52;;;;;;;22.67;16.08;;;7.90;99.90;;;;;;4999515;28;20071;-76
2023/10/23 05:37:17;;;;;;;21.25;15.85;;;7.90;99.90;;;;;;4999752;28;20043;-76
2023/10/23 05:39:43;;;;;;;19.33;15.02;;;7.90;99.90;;;;;;4992919;28;20042;-76
2023/10/23 05:42:09;;;;;;;17.48;13.52;;;7.90;99.90;;;;;;5001331;28;20737;-75
2023/10/23 05:44:34;;;;;;;18.42;13.48;;;7.90;99.90;;;;;;4997427;28;20085;-76
2023/10/23 05:47:00;;;;;;;16.08;11.68;;;7.80;99.90;;;;;;5011369;28;20474;-78
2023/10/23 05:49:27;;;;;;;12.73;10.45;;;7.80;99.90;;;;;;5008154;28;20042;-76
2023/10/23 05:51:52;;;;;;;12.57;10.13;;;7.80;99.90;;;;;;4991321;28;20151;-76
2023/10/23 05:54:18;;;;;;;16.10;12.25;;;7.80;99.90;;;;;;5027575;28;20133;-75
2023/10/23 05:56:44;;;;;;;15.45;12.65;;;7.70;99.90;;;;;;4999371;28;20065;-78
2023/10/23 05:59:10;;;;;;;20.00;14.63;;;7.70;99.90;;;;;;5016148;27;20050;-77
2023/10/23 06:01:36;;;;;;;18.05;13.82;;;7.70;99.90;;;;;;4998493;28;20046;-77
2023/10/23 06:04:04;;;;;;;14.05;11.77;;;7.70;99.90;;;;;;4997200;28;20046;-77
2023/10/23 06:06:30;;;;;;;12.27;10.02;;;7.80;99.90;;;;;;4993402;28;20445;-77
2023/10/23 06:08:56;;;;;;;12.75;9.68;;;7.80;99.90;;;;;;4999341;28;20443;-77
2023/10/23 06:11:23;;;;;;;13.45;10.23;;;7.70;99.90;;;;;;5004550;28;20091;-76
2023/10/23 06:13:49;;;;;;;12.85;9.48;;;7.70;99.90;;;;;;5000831;28;20050;-77
2023/10/23 06:16:15;;;;;;;11.80;9.90;;;7.70;99.90;;;;;;5001123;28;20067;-77
2023/10/23 06:18:41;;;;;;;10.77;9.65;;;7.70;99.90;;;;;;5004885;28;20430;-77
2023/10/23 06:21:07;;;;;;;10.27;9.18;;;7.70;99.90;;;;;;4998779;28;20870;-77
2023/10/23 06:23:38;;;;;;;11.05;8.30;;;7.70;99.90;;;;;;4997377;28;20054;-77
2023/10/23 06:26:08;;;;;;;10.25;8.77;;;7.70;99.90;;;;;;5000062;28;20042;-77
2023/10/23 06:28:35;;;;;;;10.57;9.48;;;7.70;99.90;;;;;;4990998;28;20125;-77
2023/10/23 06:31:08;;;;;;;11.05;9.50;;;7.70;99.90;;;;;;4995803;28;20481;-76
2023/10/23 06:33:35;;;;;;;10.55;9.45;;;7.70;99.90;;;;;;5007562;28;20504;-76
2023/10/23 06:36:01;;;;;;;12.35;9.35;;;7.70;99.90;;;;;;4999035;28;20045;-77
2023/10/23 06:38:27;;;;;;;11.35;9.80;;;7.80;99.90;;;;;;4997822;28;20073;-77
2023/10/23 06:40:53;;;;;;;11.38;10.10;;;7.80;99.90;;;;;;4999761;28;20694;-76
2023/10/23 06:43:19;;;;;;;11.82;10.30;;;7.80;99.90;;;;;;5013603;28;20048;-76
2023/10/23 06:45:44;;;;;;;11.70;9.77;;;7.80;99.90;;;;;;5009999;28;20150;-77
2023/10/23 06:48:10;;;;;;;13.60;12.35;;;7.90;99.90;;;;;;4997183;28;20078;-76
2023/10/23 06:50:36;;;;;;;11.52;10.30;;;7.90;99.90;;;;;;5011874;28;20045;-76
2023/10/23 06:53:02;;;;;;;12.45;10.65;;;7.90;99.90;;;;;;5012927;28;20128;-76
2023/10/23 06:55:28;;;;;;;12.48;10.77;;;7.90;99.90;;;;;;5007138;28;20121;-76
2023/10/23 06:57:54;;;;;;;13.52;11.02;;;7.90;99.90;;;;;;4998511;28;20485;-76
2023/10/23 07:00:20;;;;;;;12.32;10.70;;;7.90;99.90;;;;;;5003439;28;20449;-74
2023/10/23 07:02:50;;;;;;;14.20;11.55;;;7.90;99.90;;;;;;5007657;28;20054;-74
2023/10/23 07:05:16;;;;;;;14.13;11.43;;;8.00;99.90;;;;;;5004662;28;20046;-74
2023/10/23 07:07:42;;;;;;;15.80;11.55;;;8.00;99.90;;;;;;5006331;28;20049;-74
2023/10/23 07:10:09;;;;;;;13.27;11.63;;;8.00;99.90;;;;;;5005557;28;20455;-74
2023/10/23 07:12:35;;;;;;;13.80;10.93;;;8.10;99.90;;;;;;4998174;28;20129;-72
2023/10/23 07:15:02;;;;;;;14.85;11.50;;;8.10;99.90;;;;;;5010801;28;20172;-73
2023/10/23 07:17:29;;;;;;;15.75;12.40;;;8.10;99.90;;;;;;5009728;28;20113;-74
2023/10/23 07:19:55;;;;;;;14.98;11.93;;;8.20;99.90;;;;;;5002532;28;20054;-73
2023/10/23 07:22:21;;;;;;;15.73;12.68;;;8.20;99.90;;;;;;5001301;28;20472;-73
2023/10/23 07:24:46;;;;;;;18.75;13.63;;;8.30;99.90;;;;;;4998883;28;20485;-79
2023/10/23 07:27:15;;;;;;;16.67;14.10;;;8.30;99.90;;;;;;5002389;28;20030;-80
2023/10/23 07:29:42;;;;;;;16.75;13.50;;;8.40;99.90;;;;;;5004319;28;20065;-78
2023/10/23 07:32:07;;;;;;;17.38;13.80;;;8.40;99.90;;;;;;5001047;28;20037;-78
2023/10/23 07:34:33;;;;;;;16.38;13.60;;;8.50;99.90;;;;;;5007452;28;20496;-79
2023/10/23 07:36:59;;;;;;;15.75;13.50;;;8.50;99.90;;;;;;5104766;27;20050;-79
2023/10/23 07:39:25;;;;;;;16.88;13.48;;;8.60;99.90;;;;;;5001224;28;20054;-76
2023/10/23 07:41:50;;;;;;;15.35;13.00;;;8.60;99.90;;;;;;4998970;28;20445;-76
2023/10/23 07:44:16;;;;;;;15.68;13.90;;;8.70;99.90;;;;;;5102507;27;20133;-75
2023/10/23 07:46:43;;;;;;;15.98;13.30;;;8.70;99.90;;;;;;4994584;28;20050;-75
2023/10/23 07:49:10;;;;;;;16.48;13.45;;;8.70;99.90;;;;;;5006191;28;20122;-78
2023/10/23 07:51:35;;;;;;;17.52;14.55;;;8.80;99.90;;;;;;5004012;28;20046;-77
2023/10/23 07:54:01;;;;;;;16.70;13.27;;;8.90;99.90;;;;;;4990082;28;20126;-79
2023/10/23 07:56:27;;;;;;;19.42;14.93;;;8.90;99.90;;;;;;4989390;28;20050;-77
2023/10/23 07:58:55;;;;;;;19.02;14.25;;;9.00;99.90;;;;;;4998755;28;20113;-82
2023/10/23 08:01:22;;;;;;;19.08;14.20;;;9.00;99.90;;;;;;5004231;28;20489;-80
2023/10/23 08:03:47;;;;;;;23.15;14.48;;;9.00;99.90;;;;;;5001224;28;20610;-84
2023/10/23 08:06:14;;;;;;;18.70;14.27;;;9.10;99.90;;;;;;5099316;27;20094;-84
2023/10/23 08:08:41;;;;;;;31.70;15.52;;;9.00;99.90;;;;;;5096262;27;20054;-85
2023/10/23 08:11:09;;;;;;;18.27;13.70;;;9.10;99.90;;;;;;5001508;28;20085;-86
2023/10/23 08:13:35;;;;;;;22.95;14.52;;;9.10;99.90;;;;;;4989808;28;20157;-82
2023/10/23 08:16:03;;;;;;;20.77;14.55;;;9.20;99.90;;;;;;5020654;28;20046;-79
2023/10/23 08:18:29;;;;;;;21.83;14.45;;;9.20;99.90;;;;;;5005126;28;20041;-78
2023/10/23 08:20:55;;;;;;;34.22;18.38;;;9.20;99.90;;;;;;4992351;28;20057;-80
2023/10/23 08:23:20;;;;;;;33.95;15.45;;;9.30;99.90;;;;;;4996422;28;20042;-79
2023/10/23 08:25:46;;;;;;;37.40;15.70;;;9.30;99.90;;;;;;5001477;28;20054;-78
2023/10/23 08:28:12;;;;;;;17.65;14.77;;;9.30;99.90;;;;;;5004610;28;20042;-74
2023/10/23 08:30:38;;;;;;;26.10;15.63;;;9.30;99.90;;;;;;5003844;28;20484;-76
2023/10/23 08:33:05;;;;;;;21.02;16.02;;;9.30;99.90;;;;;;5007541;28;20482;-76
2023/10/23 08:35:31;;;;;;;20.90;15.40;;;9.30;99.90;;;;;;5005332;28;20129;-75
2023/10/23 08:37:57;;;;;;;28.73;16.85;;;9.30;99.90;;;;;;5006308;28;20104;-75
2023/10/23 08:40:23;;;;;;;40.70;17.88;;;9.40;99.90;;;;;;4994899;28;20137;-75
2023/10/23 08:42:48;;;;;;;36.63;18.13;;;9.40;99.90;;;;;;4995659;28;20038;-77
2023/10/23 08:45:17;;;;;;;57.38;18.80;;;9.40;99.90;;;;;;4998873;28;20053;-77
2023/10/23 08:47:44;;;;;;;44.38;18.08;;;9.40;99.90;;;;;;4999596;28;20053;-77
2023/10/23 08:50:12;;;;;;;22.45;17.58;;;9.50;99.90;;;;;;4999710;28;20138;-77
2023/10/23 08:52:46;;;;;;;34.90;18.45;;;9.50;99.90;;;;;;5017024;28;20050;-76
2023/10/23 08:55:13;;;;;;;33.97;18.92;;;9.50;99.90;;;;;;5004551;28;20050;-75
2023/10/23 08:57:50;;;;;;;33.63;18.88;;;9.60;99.90;;;;;;4996982;28;20049;-74
2023/10/23 09:00:16;;;;;;;28.52;19.25;;;9.60;99.90;;;;;;5006768;28;20045;-75
2023/10/23 09:02:42;;;;;;;35.85;20.67;;;9.70;99.90;;;;;;5000169;28;20049;-75
2023/10/23 09:05:07;;;;;;;30.95;20.80;;;9.70;99.90;;;;;;4994085;28;20565;-75
2023/10/23 09:07:33;;;;;;;36.38;20.50;;;9.70;99.90;;;;;;4997950;28;20129;-74
2023/10/23 09:10:03;;;;;;;29.55;20.40;;;9.80;99.90;;;;;;4999864;28;20057;-75
2023/10/23 09:12:33;;;;;;;30.90;21.27;;;9.80;99.90;;;;;;4996911;28;20040;-74
2023/10/23 09:15:20;;;;;;;33.45;22.95;;;9.80;99.90;;;;;;5014438;28;20507;-75
2023/10/23 09:17:47;;;;;;;36.03;23.25;;;9.80;99.90;;;;;;4992417;28;20046;-74
2023/10/23 09:20:19;;;;;;;30.50;21.15;;;9.90;99.90;;;;;;4988624;28;20055;-72
2023/10/23 09:22:48;;;;;;;35.92;22.55;;;9.90;99.90;;;;;;5010893;28;20044;-76
2023/10/23 09:25:18;;;;;;;36.63;23.27;;;9.90;99.90;;;;;;5007539;28;20106;-75
2023/10/23 09:27:44;;;;;;;38.72;24.38;;;10.00;99.90;;;;;;5006835;28;20135;-74
2023/10/23 09:30:10;;;;;;;37.72;24.20;;;10.00;99.90;;;;;;5112260;27;20050;-74
2023/10/23 09:32:37;;;;;;;44.58;25.20;;;10.10;99.90;;;;;;5013780;28;20041;-74
2023/10/23 09:35:04;;;;;;;42.07;24.80;;;10.20;99.90;;;;;;5020852;28;20046;-74
2023/10/23 09:37:30;;;;;;;46.67;32.70;;;10.30;99.90;;;;;;5041028;28;20045;-75
2023/10/23 09:40:16;;;;;;;48.97;28.58;;;10.30;99.90;;;;;;5000524;28;20037;-74
2023/10/23 09:42:42;;;;;;;46.03;25.90;;;10.40;99.90;;;;;;4987416;28;20057;-77
2023/10/23 09:45:09;;;;;;;46.20;27.35;;;10.40;99.90;;;;;;4992096;28;20041;-76
2023/10/23 09:47:35;;;;;;;51.47;28.20;;;10.50;99.90;;;;;;4986211;28;20497;-77
2023/10/23 09:50:03;;;;;;;50.03;28.58;;;10.50;99.90;;;;;;5001829;28;20099;-78
2023/10/23 09:52:33;;;;;;;53.38;29.27;;;10.50;99.90;;;;;;4995913;28;20045;-76
2023/10/23 09:55:01;;;;;;;52.92;30.48;;;10.60;99.90;;;;;;4999533;28;20190;-76
2023/10/23 09:57:44;;;;;;;49.42;32.58;;;10.60;99.90;;;;;;4993621;28;20082;-75
2023/10/23 10:00:14;;;;;;;46.58;27.73;;;10.70;99.90;;;;;;4996723;28;20076;-74
2023/10/23 10:02:52;;;;;;;45.55;28.38;;;10.80;99.90;;;;;;4987753;28;20093;-75
2023/10/23 10:05:42;;;;;;;48.05;33.60;;;10.90;99.90;;;;;;4999951;28;20029;-73
2023/10/23 10:08:13;;;;;;;51.20;35.70;;;10.90;99.90;;;;;;5009149;28;20512;-79
2023/10/23 10:10:40;;;;;;;43.15;28.60;;;10.90;99.90;;;;;;4995692;28;20061;-76
2023/10/23 10:13:06;;;;;;;39.90;27.67;;;11.00;99.90;;;;;;4998212;28;20046;-76
2023/10/23 10:15:33;;;;;;;41.20;29.23;;;11.00;99.90;;;;;;4988411;28;20038;-77
2023/10/23 10:17:58;;;;;;;39.40;28.08;;;11.00;99.90;;;;;;4998260;28;20046;-77
2023/10/23 10:20:25;;;;;;;39.92;29.25;;;11.00;99.90;;;;;;5003892;28;20049;-77
2023/10/23 10:23:11;;;;;;;37.35;27.40;;;11.00;99.90;;;;;;4994328;28;20095;-78
2023/10/23 10:25:38;;;;;;;37.97;26.43;;;11.00;99.90;;;;;;5012101;28;20048;-80
2023/10/23 10:28:07;;;;;;;36.97;27.95;;;11.10;99.90;;;;;;5008127;28;20559;-80
2023/10/23 10:30:49;;;;;;;36.75;29.13;;;11.10;99.90;;;;;;5001352;28;20039;-80
2023/10/23 10:33:19;;;;;;;35.28;27.48;;;11.10;99.90;;;;;;4993993;28;20421;-82
2023/10/23 10:36:04;;;;;;;34.13;30.50;;;11.10;99.90;;;;;;4989216;28;20696;-81
2023/10/23 10:38:32;;;;;;;37.45;28.13;;;11.10;99.90;;;;;;5008238;28;20042;-79
2023/10/23 10:41:03;;;;;;;33.63;26.92;;;11.10;99.90;;;;;;5008039;28;20056;-72
2023/10/23 10:43:34;;;;;;;34.65;27.88;;;11.10;99.90;;;;;;5009815;28;20050;-82
2023/10/23 10:46:24;;;;;;;32.03;28.42;;;11.10;99.90;;;;;;5002837;28;20050;-74
2023/10/23 10:48:52;;;;;;;30.42;25.92;;;11.20;99.90;;;;;;5003984;28;20064;-76
2023/10/23 10:51:21;;;;;;;31.35;26.63;;;11.20;99.90;;;;;;4995035;28;20083;-76
2023/10/23 10:53:47;;;;;;;32.67;25.20;;;11.20;99.90;;;;;;4995286;28;20038;-76
2023/10/23 10:56:14;;;;;;;40.17;30.48;;;11.20;99.90;;;;;;5011600;28;20046;-76
2023/10/23 10:58:43;;;;;;;32.28;28.13;;;11.20;99.90;;;;;;4997341;28;20093;-76
2023/10/23 11:01:09;;;;;;;28.58;25.23;;;11.30;99.90;;;;;;4990979;28;20777;-76
2023/10/23 11:03:36;;;;;;;29.35;26.02;;;11.30;99.90;;;;;;4994999;28;20106;-76
2023/10/23 11:06:05;;;;;;;29.88;24.95;;;11.40;99.90;;;;;;5002856;28;20057;-77
2023/10/23 11:08:31;;;;;;;31.77;26.75;;;11.40;99.90;;;;;;4992566;28;20073;-77
2023/10/23 11:10:57;;;;;;;29.85;25.88;;;11.40;99.90;;;;;;5000874;28;20077;-77
2023/10/23 11:13:24;;;;;;;30.90;26.58;;;11.50;99.90;;;;;;4997877;28;20105;-77
2023/10/23 11:15:56;;;;;;;30.45;27.15;;;11.50;99.90;;;;;;4992129;28;20084;-77
2023/10/23 11:18:22;;;;;;;28.38;25.10;;;11.50;99.90;;;;;;5003509;28;20047;-75
2023/10/23 11:20:48;;;;;;;29.08;25.35;;;11.60;99.90;;;;;;5002763;28;20448;-75
2023/10/23 11:23:21;;;;;;;29.08;25.77;;;11.60;99.90;;;;;;4999457;28;20113;-75
2023/10/23 11:25:51;;;;;;;28.90;25.60;;;11.60;99.90;;;;;;5012368;28;20095;-75
2023/10/23 11:28:20;;;;;;;31.77;26.42;;;11.70;99.90;;;;;;5000743;28;20042;-75
2023/10/23 11:30:57;;;;;;;29.45;26.15;;;11.70;99.90;;;;;;5009622;28;20503;-75
2023/10/23 11:33:23;;;;;;;31.58;27.50;;;11.80;99.90;;;;;;4987231;28;20071;-75
2023/10/23 11:35:48;;;;;;;31.27;27.17;;;11.80;99.90;;;;;;5006421;28;20082;-76
2023/10/23 11:38:15;;;;;;;30.30;26.92;;;11.90;99.90;;;;;;5115541;27;20063;-75
2023/10/23 11:40:44;;;;;;;30.75;27.45;;;11.90;99.90;;;;;;4999503;28;20054;-75
2023/10/23 11:43:17;;;;;;;33.15;28.08;;;11.90;99.90;;;;;;5010499;28;20042;-75
2023/10/23 11:45:45;;;;;;;31.58;28.13;;;11.90;99.90;;;;;;4986239;28;20070;-76
2023/10/23 11:48:14;;;;;;;34.50;28.23;;;11.90;99.90;;;;;;5004502;28;20058;-75
2023/10/23 11:50:42;;;;;;;33.95;27.30;;;11.90;99.90;;;;;;4999041;28;20058;-76
2023/10/23 11:53:08;;;;;;;31.52;26.35;;;11.90;99.90;;;;;;5001274;28;20042;-74
2023/10/23 11:55:35;;;;;;;34.58;28.48;;;12.00;99.90;;;;;;4994520;28;20041;-76
2023/10/23 11:58:01;;;;;;;31.80;27.33;;;12.00;99.90;;;;;;5003131;28;20091;-76
2023/10/23 12:00:27;;;;;;;31.58;26.95;;;12.00;99.90;;;;;;5005609;28;20050;-75
2023/10/23 12:02:53;;;;;;;34.88;29.27;;;12.10;99.90;;;;;;5014039;28;20532;-75
2023/10/23 12:05:21;;;;;;;31.27;27.67;;;12.10;99.90;;;;;;4987036;28;20132;-77
2023/10/23 12:07:54;;;;;;;32.30;28.70;;;12.20;99.90;;;;;;4994877;28;20053;-78
2023/10/23 12:10:27;;;;;;;31.30;27.55;;;12.20;99.90;;;;;;5109169;27;20057;-81
2023/10/23 12:12:54;;;;;;;30.42;27.08;;;12.30;99.90;;;;;;5105415;27;20053;-78
2023/10/23 12:15:21;;;;;;;29.90;26.17;;;12.30;99.90;;;;;;4998849;28;20069;-81
2023/10/23 12:17:46;;;;;;;30.42;26.23;;;12.30;99.90;;;;;;4998322;28;20044;-77
2023/10/23 12:20:14;;;;;;;30.42;27.13;;;12.30;99.90;;;;;;5000598;28;20038;-78
2023/10/23 12:22:45;;;;;;;30.77;26.83;;;12.40;99.90;;;;;;5005628;28;20527;-78
2023/10/23 12:25:12;;;;;;;31.65;28.35;;;12.40;99.90;;;;;;4998964;28;20050;-78
2023/10/23 12:27:39;;;;;;;31.85;28.45;;;12.40;99.90;;;;;;5002922;28;20735;-80
2023/10/23 12:30:07;;;;;;;30.90;27.67;;;12.40;99.90;;;;;;5011796;28;20037;-80
2023/10/23 12:32:36;;;;;;;32.28;28.95;;;12.50;99.90;;;;;;5002375;28;20039;-78
2023/10/23 12:35:05;;;;;;;35.83;32.15;;;12.50;99.90;;;;;;4992100;28;20508;-79
2023/10/23 12:37:32;;;;;;;35.78;32.17;;;12.60;99.90;;;;;;4998461;28;20061;-79
2023/10/23 12:40:00;;;;;;;40.00;35.92;;;12.60;99.90;;;;;;4987920;28;20054;-77